Time;durP1;ratioP1;P1;durP2;ratioP2;P2;SDS_P1;SDS_P2;PMS_P1;PMS_P2;Temp;Humidity;BMP_temperature;BMP_pressure;BME280_temperature;BME280_humidity;BME280_pressure;Samples;Min_cycle;Max_cycle;Signal;HPM_P1;HPM_P2
2022/11/01 00:02:34;;;;;;;84.43;36.10;;;;;;;8.12;98.84;99176.44;2171417;81;21389;-83
2022/11/01 00:05:34;;;;;;;83.40;34.77;;;;;;;8.18;98.78;99177.91;2171480;81;20949;-83
2022/11/01 00:08:34;;;;;;;88.83;37.37;;;;;;;8.27;98.73;99172.95;2171138;81;21292;-83
2022/11/01 00:11:35;;;;;;;117.37;40.10;;;;;;;8.34;98.69;99167.94;2170107;81;20969;-83
2022/11/01 00:14:35;;;;;;;76.63;39.60;;;;;;;8.45;99.37;99173.88;2170943;81;20965;-82
2022/11/01 00:17:36;;;;;;;86.63;41.07;;;;;;;8.52;99.77;99165.80;2171178;81;21024;-82
2022/11/01 00:20:36;;;;;;;97.97;37.70;;;;;;;8.60;99.54;99166.87;2171121;82;21323;-84
2022/11/01 00:23:36;;;;;;;76.10;37.00;;;;;;;8.64;99.34;99167.41;2170294;81;20956;-84
2022/11/01 00:26:37;;;;;;;98.63;39.10;;;;;;;8.70;99.63;99175.39;2172162;81;20980;-84
2022/11/01 00:29:37;;;;;;;83.53;37.20;;;;;;;8.75;99.65;99168.58;2170134;81;20906;-83
2022/11/01 00:32:38;;;;;;;71.10;38.97;;;;;;;8.83;100.00;99164.44;2171077;81;20901;-83
2022/11/01 00:35:38;;;;;;;83.47;37.77;;;;;;;8.90;100.00;99166.34;2171734;81;20961;-83
2022/11/01 00:38:38;;;;;;;73.97;38.87;;;;;;;8.94;100.00;99159.05;2170212;81;20894;-84
2022/11/01 00:41:39;;;;;;;69.23;39.77;;;;;;;8.94;99.94;99152.55;2169985;81;21360;-83
2022/11/01 00:44:39;;;;;;;66.07;41.00;;;;;;;9.02;100.00;99150.54;2169959;81;20929;-84
2022/11/01 00:47:40;;;;;;;67.80;42.97;;;;;;;9.08;100.00;99155.89;2170068;81;20973;-83
2022/11/01 00:50:40;;;;;;;59.50;41.03;;;;;;;9.16;100.00;99151.73;2171049;81;20922;-83
2022/11/01 00:53:40;;;;;;;65.73;42.03;;;;;;;9.21;100.00;99147.50;2172066;81;20956;-83
2022/11/01 00:56:41;;;;;;;64.60;41.13;;;;;;;9.24;100.00;99142.36;2170958;81;21032;-83
2022/11/01 00:59:41;;;;;;;63.17;42.73;;;;;;;9.21;100.00;99145.77;2170195;81;21017;-83
2022/11/01 01:02:42;;;;;;;65.80;42.90;;;;;;;9.25;100.00;99148.02;2172094;81;20993;-84
2022/11/01 01:05:42;;;;;;;64.57;41.60;;;;;;;9.26;100.00;99141.97;2173255;81;20972;-83
2022/11/01 01:08:43;;;;;;;60.50;39.50;;;;;;;9.28;100.00;99142.00;2170252;82;20945;-83
2022/11/01 01:11:43;;;;;;;60.83;38.60;;;;;;;9.29;100.00;99128.12;2170043;81;20932;-83
2022/11/01 01:14:43;;;;;;;58.30;38.53;;;;;;;9.26;100.00;99127.22;2173169;82;20917;-83
2022/11/01 01:17:44;;;;;;;56.13;37.37;;;;;;;9.25;100.00;99123.28;2172230;81;20910;-83
2022/11/01 01:20:44;;;;;;;55.67;38.07;;;;;;;9.24;100.00;99118.92;2169427;81;21474;-83
2022/11/01 01:23:47;;;;;;;54.43;37.57;;;;;;;9.20;100.00;99112.77;2172784;81;20984;-83
2022/11/01 01:26:45;;;;;;;56.53;36.13;;;;;;;9.14;100.00;99107.42;2172464;81;21045;-83
2022/11/01 01:29:45;;;;;;;56.50;37.53;;;;;;;9.15;100.00;99103.09;2173018;81;20960;-83
2022/11/01 01:32:46;;;;;;;54.33;34.77;;;;;;;9.10;100.00;99107.32;2172391;81;20988;-83
2022/11/01 01:35:46;;;;;;;48.67;34.53;;;;;;;9.07;100.00;99108.55;2171494;81;20989;-83
2022/11/01 01:38:46;;;;;;;50.10;35.40;;;;;;;9.02;100.00;99101.95;2172881;82;20926;-83
2022/11/01 01:41:56;;;;;;;51.00;34.63;;;;;;;8.99;100.00;99104.91;2170115;82;20926;-83
2022/11/01 01:44:56;;;;;;;47.73;33.13;;;;;;;8.97;100.00;99090.55;2169931;81;20980;-83
2022/11/01 01:47:57;;;;;;;47.10;32.10;;;;;;;8.94;100.00;99092.67;2170946;81;20961;-83
2022/11/01 01:50:58;;;;;;;44.20;32.87;;;;;;;8.93;100.00;99090.03;2171633;81;20938;-82
2022/11/01 01:53:58;;;;;;;47.20;32.50;;;;;;;8.88;100.00;99094.25;2171320;81;21329;-82
2022/11/01 01:56:58;;;;;;;46.10;32.30;;;;;;;8.83;100.00;99088.95;2171863;81;21036;-82
2022/11/01 01:59:58;;;;;;;50.23;34.30;;;;;;;8.81;100.00;99081.52;2172808;81;20957;-83
2022/11/01 02:02:59;;;;;;;50.37;31.93;;;;;;;8.78;100.00;99075.38;2172286;81;21016;-82
2022/11/01 02:05:59;;;;;;;49.80;32.73;;;;;;;8.78;100.00;99072.77;2173215;81;20925;-83
2022/11/01 02:09:00;;;;;;;46.33;31.40;;;;;;;8.77;100.00;99068.41;2173097;81;20945;-82
2022/11/01 02:12:00;;;;;;;51.07;31.73;;;;;;;8.77;100.00;99064.08;2173005;81;21313;-82
2022/11/01 02:15:00;;;;;;;53.30;32.03;;;;;;;8.76;100.00;99062.32;2172843;81;20961;-82
2022/11/01 02:18:01;;;;;;;45.93;29.90;;;;;;;8.78;100.00;99063.23;2172924;81;21028;-83
2022/11/01 02:21:01;;;;;;;42.27;29.57;;;;;;;8.77;100.00;99067.11;2172723;81;20941;-83
2022/11/01 02:24:02;;;;;;;35.97;27.77;;;;;;;8.78;100.00;99055.85;2173003;81;20945;-82
2022/11/01 02:27:02;;;;;;;43.33;28.80;;;;;;;8.81;100.00;99058.09;2172715;81;20988;-82
2022/11/01 02:30:02;;;;;;;45.10;28.47;;;;;;;8.82;100.00;99055.95;2172862;81;21245;-82
2022/11/01 02:33:03;;;;;;;43.47;28.67;;;;;;;8.80;100.00;99055.03;2172815;81;20917;-82
2022/11/01 02:36:03;;;;;;;37.57;27.83;;;;;;;8.82;100.00;99048.14;2172838;81;20969;-83
2022/11/01 02:39:04;;;;;;;35.77;26.20;;;;;;;8.83;100.00;99038.19;2172518;82;20953;-82
2022/11/01 02:42:04;;;;;;;36.23;26.50;;;;;;;8.84;100.00;99042.97;2172727;81;21336;-82
2022/11/01 02:45:04;;;;;;;37.23;26.53;;;;;;;8.82;100.00;99040.33;2172979;81;20917;-82
2022/11/01 02:48:05;;;;;;;40.67;25.83;;;;;;;8.85;100.00;99043.42;2172866;81;20978;-82
2022/11/01 02:51:05;;;;;;;37.73;26.00;;;;;;;8.84;100.00;99042.55;2172632;81;21028;-82
2022/11/01 02:54:06;;;;;;;34.43;25.23;;;;;;;8.85;100.00;99040.40;2172791;82;20929;-83
2022/11/01 02:57:06;;;;;;;34.33;25.30;;;;;;;8.83;100.00;99039.48;2172585;81;20977;-81
2022/11/01 03:00:07;;;;;;;34.27;25.27;;;;;;;8.84;100.00;99041.24;2172581;81;20991;-82
2022/11/01 03:03:07;;;;;;;34.57;22.93;;;;;;;8.82;100.00;99045.54;2178077;81;21008;-83
2022/11/01 03:06:07;;;;;;;35.00;23.63;;;;;;;8.81;100.00;99058.09;2179878;82;20960;-83
2022/11/01 03:09:08;;;;;;;28.50;22.43;;;;;;;8.80;100.00;99055.46;2180020;82;20960;-83
2022/11/01 03:12:08;;;;;;;34.10;22.07;;;;;;;8.79;100.00;99054.58;2171419;82;20937;-83
2022/11/01 03:15:19;;;;;;;24.97;20.63;;;;;;;8.79;100.00;99049.38;2170713;81;21008;-83
2022/11/01 03:18:09;;;;;;;52.33;23.27;;;;;;;8.73;100.00;99041.86;2171236;81;20937;-83
2022/11/01 03:21:16;;;;;;;27.90;21.47;;;;;;;8.64;100.00;99039.89;2171355;81;20988;-82
2022/11/01 03:24:16;;;;;;;42.73;22.30;;;;;;;8.60;100.00;99037.64;2171070;81;21340;-82
2022/11/01 03:27:17;;;;;;;30.97;21.77;;;;;;;8.56;100.00;99035.81;2170632;81;20953;-82
2022/11/01 03:30:17;;;;;;;33.40;22.63;;;;;;;8.54;100.00;99031.00;2171258;81;20973;-82
2022/11/01 03:33:17;;;;;;;26.90;20.73;;;;;;;8.52;100.00;99028.78;2171168;81;20910;-83
2022/11/01 03:36:18;;;;;;;30.10;21.67;;;;;;;8.49;100.00;99027.84;2171102;81;21325;-82
2022/11/01 03:39:18;;;;;;;29.57;21.17;;;;;;;8.48;100.00;99032.58;2171120;81;20937;-82
2022/11/01 03:42:18;;;;;;;27.37;21.57;;;;;;;8.44;100.00;99029.45;2170962;81;21029;-82
2022/11/01 03:45:19;;;;;;;26.87;20.20;;;;;;;8.41;100.00;99022.88;2171132;81;20909;-83
2022/11/01 03:48:19;;;;;;;27.40;20.10;;;;;;;8.36;100.00;99027.98;2170409;81;20929;-82
2022/11/01 03:51:20;;;;;;;26.63;19.73;;;;;;;8.37;100.00;99030.16;2171544;81;20961;-83
2022/11/01 03:54:20;;;;;;;25.80;20.53;;;;;;;8.36;100.00;99040.10;2170270;81;20949;-82
2022/11/01 03:57:20;;;;;;;35.20;27.33;;;;;;;8.34;100.00;99044.39;2170848;81;20937;-82
2022/11/01 04:00:21;;;;;;;38.63;27.63;;;;;;;8.32;100.00;99041.72;2171489;81;20965;-82
2022/11/01 04:03:21;;;;;;;28.67;21.13;;;;;;;8.29;100.00;99037.32;2169825;81;21345;-83
2022/11/01 04:06:22;;;;;;;25.37;19.73;;;;;;;8.26;100.00;99031.17;2169662;82;20941;-83
2022/11/01 04:09:22;;;;;;;27.90;19.97;;;;;;;8.23;100.00;99035.00;2170737;81;20930;-83
2022/11/01 04:12:22;;;;;;;23.23;18.87;;;;;;;8.20;100.00;99038.83;2170889;81;20993;-83
2022/11/01 04:22:03;;;;;;;26.03;19.43;;;;;;;8.02;100.00;99031.45;2170687;82;21025;-83
2022/11/01 04:25:01;;;;;;;22.53;19.00;;;;;;;7.97;100.00;99029.16;2170042;81;21265;-82
2022/11/01 04:28:01;;;;;;;20.83;17.53;;;;;;;7.97;100.00;99030.46;2169750;81;20980;-83
2022/11/01 04:31:02;;;;;;;26.27;18.73;;;;;;;7.96;100.00;99026.98;2171171;81;20965;-82
2022/11/01 04:34:02;;;;;;;27.17;19.33;;;;;;;7.95;100.00;99030.84;2170982;81;20914;-82
2022/11/01 04:37:03;;;;;;;25.40;19.50;;;;;;;7.91;100.00;99022.51;2169844;81;21368;-82
2022/11/01 04:40:03;;;;;;;25.57;19.10;;;;;;;7.88;100.00;99023.31;2169505;81;20926;-81
2022/11/01 04:43:03;;;;;;;24.73;20.13;;;;;;;7.86;100.00;99022.81;2170340;81;20894;-82
2022/11/01 04:46:04;;;;;;;24.23;20.53;;;;;;;7.85;100.00;99020.63;2170710;81;20953;-83
2022/11/01 04:49:04;;;;;;;25.57;19.33;;;;;;;7.86;100.00;99015.02;2169937;81;21023;-82
2022/11/01 04:52:05;;;;;;;25.37;19.60;;;;;;;7.87;100.00;99018.08;2170797;81;21321;-82
2022/11/01 04:55:05;;;;;;;24.63;20.20;;;;;;;7.88;100.00;99018.11;2171099;81;20933;-82
2022/11/01 04:58:05;;;;;;;23.90;18.97;;;;;;;7.90;100.00;99019.45;2170447;82;21102;-81
2022/11/01 05:01:06;;;;;;;24.13;19.33;;;;;;;7.92;100.00;99019.07;2171059;81;21363;-82
2022/11/01 05:04:06;;;;;;;25.60;20.10;;;;;;;7.92;100.00;99025.56;2170345;81;21002;-83
2022/11/01 05:07:07;;;;;;;24.13;19.60;;;;;;;7.94;100.00;99022.17;2169945;81;20923;-82
2022/11/01 05:10:07;;;;;;;26.73;18.07;;;;;;;7.98;100.00;99024.42;2170679;81;21345;-82
2022/11/01 05:13:07;;;;;;;29.10;19.67;;;;;;;7.99;100.00;99015.78;2171097;81;20989;-82
2022/11/01 05:16:08;;;;;;;66.80;42.83;;;;;;;8.03;100.00;99020.22;2170435;81;20898;-82
2022/11/01 05:19:08;;;;;;;35.43;20.20;;;;;;;7.99;100.00;99015.78;2170863;81;20989;-82
2022/11/01 05:22:09;;;;;;;29.83;19.23;;;;;;;7.99;100.00;99023.16;2170645;81;20965;-82
2022/11/01 05:25:09;;;;;;;30.57;18.50;;;;;;;8.00;100.00;99018.84;2170856;81;20972;-82
2022/11/01 05:28:09;;;;;;;28.73;17.90;;;;;;;8.02;100.00;99021.48;2169855;82;21033;-83
2022/11/01 05:31:10;;;;;;;23.93;17.27;;;;;;;8.03;100.00;99020.22;2169907;81;21321;-83
2022/11/01 05:34:10;;;;;;;22.10;17.37;;;;;;;7.99;100.00;99007.98;2171511;81;21001;-84
2022/11/01 05:37:11;;;;;;;31.73;17.47;;;;;;;7.91;100.00;99005.61;2170965;81;20996;-84
2022/11/01 05:40:11;;;;;;;27.17;17.40;;;;;;;7.85;100.00;99007.64;2170698;81;21416;-82
2022/11/01 05:43:11;;;;;;;24.53;17.10;;;;;;;7.86;100.00;99009.40;2169979;81;20992;-83
2022/11/01 05:46:12;;;;;;;33.73;17.17;;;;;;;7.83;100.00;99008.44;2171244;81;20954;-83
2022/11/01 05:49:12;;;;;;;38.10;16.67;;;;;;;7.78;100.00;99001.80;2171220;81;20984;-84
2022/11/01 05:52:13;;;;;;;25.13;15.43;;;;;;;7.74;100.00;99002.98;2172056;81;20933;-82
2022/11/01 05:55:13;;;;;;;36.33;26.80;;;;;;;7.71;100.00;98999.00;2171338;81;20997;-81
2022/11/01 05:58:13;;;;;;;25.30;16.80;;;;;;;7.70;100.00;98995.95;2172144;81;21370;-83
2022/11/01 06:01:16;;;;;;;28.40;16.40;;;;;;;7.71;100.00;99002.91;2171512;81;20956;-81
2022/11/01 06:04:14;;;;;;;18.57;15.87;;;;;;;7.73;100.00;99001.22;2170302;81;20989;-82
2022/11/01 06:07:15;;;;;;;17.13;15.27;;;;;;;7.76;100.00;99005.20;2171074;82;20972;-83
2022/11/01 06:10:15;;;;;;;21.97;15.77;;;;;;;7.81;100.00;99007.52;2170140;81;21357;-83
2022/11/01 06:13:15;;;;;;;17.67;15.87;;;;;;;7.87;100.00;99005.08;2170035;81;21257;-83
2022/11/01 06:16:16;;;;;;;19.90;15.77;;;;;;;7.92;100.00;99003.47;2170076;81;20948;-82
2022/11/01 06:19:16;;;;;;;20.77;14.77;;;;;;;7.97;100.00;99000.56;2170034;82;20988;-82
2022/11/01 06:22:17;;;;;;;23.33;15.17;;;;;;;8.06;100.00;98998.19;2168904;81;21312;-82
2022/11/01 06:25:17;;;;;;;21.10;15.10;;;;;;;8.11;100.00;98995.28;2170222;81;20960;-82
2022/11/01 06:28:17;;;;;;;20.47;14.17;;;;;;;8.19;100.00;98997.64;2169264;81;21008;-81
2022/11/01 06:31:18;;;;;;;22.97;15.10;;;;;;;8.26;99.71;98999.55;2168468;81;20961;-81
2022/11/01 06:34:18;;;;;;;27.50;17.83;;;;;;;8.34;99.78;99000.17;2168442;82;21400;-81
2022/11/01 06:37:19;;;;;;;24.83;16.47;;;;;;;8.37;99.44;99005.02;2170348;81;20936;-82
2022/11/01 06:40:19;;;;;;;18.07;14.50;;;;;;;8.43;99.58;99004.28;2170277;81;20933;-84
2022/11/01 06:43:20;;;;;;;26.50;16.20;;;;;;;8.48;98.94;99005.27;2171450;81;20938;-84
2022/11/01 06:46:20;;;;;;;18.73;15.20;;;;;;;8.46;98.83;99003.05;2170637;81;21344;-84
2022/11/01 06:49:20;;;;;;;20.87;15.20;;;;;;;8.49;98.97;99004.00;2172534;81;21029;-83
2022/11/01 06:52:21;;;;;;;16.50;14.63;;;;;;;8.54;98.84;98996.30;2171105;81;20953;-82
2022/11/01 06:55:21;;;;;;;21.53;14.83;;;;;;;8.60;98.95;98991.23;2170271;81;21322;-84
2022/11/01 06:58:22;;;;;;;15.70;14.10;;;;;;;8.67;98.80;98994.84;2171636;81;21008;-84
2022/11/01 07:01:24;;;;;;;16.00;14.23;;;;;;;8.74;98.68;98997.64;2170556;81;20964;-84
2022/11/01 07:04:26;;;;;;;18.30;14.67;;;;;;;8.79;98.67;98992.54;2160709;82;20969;-82
2022/11/01 07:07:25;;;;;;;18.53;15.57;;;;;;;8.87;98.63;98998.36;2158530;83;20972;-84
2022/11/01 07:10:25;;;;;;;16.33;14.60;;;;;;;9.04;98.73;99006.94;2158465;82;20980;-84
2022/11/01 07:13:32;;;;;;;20.23;14.00;;;;;;;9.16;98.38;99003.28;2158252;83;20939;-83
2022/11/01 07:16:28;;;;;;;21.63;14.37;;;;;;;9.22;97.69;99001.67;2158516;83;20954;-84
2022/11/01 07:19:28;;;;;;;20.00;13.37;;;;;;;9.32;97.48;98996.22;2158534;83;21323;-84
2022/11/01 07:22:28;;;;;;;16.37;13.40;;;;;;;9.40;97.05;98996.36;2158375;82;20993;-83
2022/11/01 07:25:29;;;;;;;16.30;13.90;;;;;;;9.41;97.06;99002.91;2158547;83;20920;-85
2022/11/01 07:28:30;;;;;;;15.47;13.93;;;;;;;9.44;96.63;99007.30;2158608;83;21046;-85
2022/11/01 07:31:32;;;;;;;19.37;14.10;;;;;;;9.47;96.86;99006.92;2158203;83;20927;-84
2022/11/01 07:34:30;;;;;;;16.27;14.00;;;;;;;9.52;96.50;99005.28;2158312;83;20920;-84
2022/11/01 07:37:30;;;;;;;19.57;15.80;;;;;;;9.57;96.56;99006.70;2157883;83;21020;-84
2022/11/01 07:40:31;;;;;;;20.03;16.50;;;;;;;9.64;96.15;99006.39;2158072;83;21004;-84
2022/11/01 07:43:33;;;;;;;20.40;13.67;;;;;;;9.66;96.24;99009.91;2158496;83;20931;-84
2022/11/01 07:46:32;;;;;;;17.37;13.40;;;;;;;9.70;96.04;99008.68;2158083;83;20952;-83
2022/11/01 07:49:32;;;;;;;18.10;14.77;;;;;;;9.78;95.94;99012.73;2158274;83;20896;-84
2022/11/01 07:52:32;;;;;;;19.40;14.47;;;;;;;9.83;95.67;99020.20;2157980;83;21319;-84
2022/11/01 07:55:33;;;;;;;24.50;16.90;;;;;;;9.91;95.66;99030.34;2158159;83;20939;-84
2022/11/01 07:58:33;;;;;;;20.83;16.37;;;;;;;10.05;95.03;99028.84;2158405;83;21003;-84
2022/11/01 08:01:34;;;;;;;22.10;16.47;;;;;;;10.09;94.96;99031.95;2158339;83;21011;-84
2022/11/01 08:04:34;;;;;;;23.13;16.60;;;;;;;10.21;95.46;99026.09;2169671;82;20980;-84
2022/11/01 08:07:34;;;;;;;21.37;17.37;;;;;;;10.21;94.64;99034.80;2173887;81;20952;-86
2022/11/01 08:10:35;;;;;;;22.83;17.63;;;;;;;10.29;94.80;99035.34;2173519;81;20957;-85
2022/11/01 08:13:35;;;;;;;24.10;18.77;;;;;;;10.43;94.65;99033.86;2173596;81;20940;-83
2022/11/01 08:16:36;;;;;;;25.83;18.87;;;;;;;10.60;94.60;99021.94;2173435;81;20973;-83
2022/11/01 08:19:36;;;;;;;30.20;20.32;;;;;;;10.78;94.05;99018.28;2173551;81;20969;-85
2022/11/01 08:22:36;;;;;;;31.70;21.68;;;;;;;10.93;93.88;99010.20;2173551;81;21000;-84
2022/11/01 08:25:37;;;;;;;30.35;22.37;;;;;;;11.05;93.10;99019.50;2173404;81;20984;-83
2022/11/01 08:28:37;;;;;;;37.13;23.95;;;;;;;11.07;92.77;99017.78;2173414;81;21044;-85
2022/11/01 08:31:38;;;;;;;32.78;23.47;;;;;;;11.05;92.86;99018.20;2173707;81;20937;-85
2022/11/01 08:34:38;;;;;;;39.13;25.45;;;;;;;11.12;92.89;99013.50;2173532;81;21296;-84
2022/11/01 08:37:38;;;;;;;36.08;25.70;;;;;;;11.14;92.69;99006.55;2173320;81;21008;-84
2022/11/01 08:40:39;;;;;;;38.40;25.40;;;;;;;11.21;92.44;99003.59;2174166;80;21008;-85
2022/11/01 08:43:39;;;;;;;41.50;26.65;;;;;;;11.19;92.19;99004.88;2175029;81;20973;-84
2022/11/01 08:46:41;;;;;;;40.08;27.25;;;;;;;11.34;92.74;99011.62;2173297;81;21317;-85
2022/11/01 08:49:40;;;;;;;44.45;28.90;;;;;;;11.49;92.02;99020.06;2173003;81;20957;-85
2022/11/01 08:52:40;;;;;;;51.92;30.05;;;;;;;11.53;91.92;99015.73;2173675;81;20969;-84
2022/11/01 08:55:43;;;;;;;45.83;29.40;;;;;;;11.58;91.65;99014.05;2157318;82;20980;-83
2022/11/01 08:58:43;;;;;;;48.90;30.95;;;;;;;11.59;91.62;99010.58;2170765;81;21044;-83
2022/11/01 09:01:44;;;;;;;43.33;30.12;;;;;;;11.66;91.79;99009.77;2173367;81;20961;-84
2022/11/01 09:04:44;;;;;;;47.03;31.80;;;;;;;11.71;91.24;99013.31;2171492;81;21068;-83
2022/11/01 09:07:44;;;;;;;55.95;34.48;;;;;;;11.64;90.50;99014.11;2172976;81;20962;-84
2022/11/01 09:10:45;;;;;;;44.15;30.82;;;;;;;11.57;90.96;99030.16;2173174;81;21000;-83
2022/11/01 09:13:45;;;;;;;41.83;29.42;;;;;;;11.56;91.22;99035.38;2173147;82;20930;-83
2022/11/01 09:16:46;;;;;;;40.88;29.90;;;;;;;11.54;91.46;99034.48;2173093;81;20945;-84
2022/11/01 09:19:46;;;;;;;41.28;30.97;;;;;;;11.60;91.54;99027.59;2172996;81;20972;-84
2022/11/01 09:22:46;;;;;;;50.23;33.23;;;;;;;11.66;91.65;99026.77;2173254;81;21336;-85
2022/11/01 09:25:47;;;;;;;44.53;33.02;;;;;;;11.70;91.09;99027.25;2173301;81;20909;-84
2022/11/01 09:28:47;;;;;;;49.00;34.00;;;;;;;11.66;90.87;99034.62;2173091;81;21063;-85
2022/11/01 09:31:48;;;;;;;49.80;34.67;;;;;;;11.55;91.28;99033.19;2170943;81;21327;-87
2022/11/01 09:34:48;;;;;;;50.12;35.10;;;;;;;11.57;91.49;99027.98;2172142;81;20973;-86
2022/11/01 09:37:48;;;;;;;43.70;32.88;;;;;;;11.62;91.55;99022.38;2171673;81;20953;-85
2022/11/01 09:40:49;;;;;;;40.35;31.35;;;;;;;11.72;91.62;99015.94;2172728;81;21008;-85
2022/11/01 09:43:49;;;;;;;41.50;31.62;;;;;;;11.88;91.52;99015.69;2173300;81;20925;-86
2022/11/01 09:46:50;;;;;;;43.00;29.67;;;;;;;12.10;90.75;99018.06;2171568;82;20890;-86
2022/11/01 09:49:50;;;;;;;40.30;29.48;;;;;;;12.05;89.46;99030.23;2172338;81;20957;-86
2022/11/01 09:52:50;;;;;;;38.20;29.12;;;;;;;11.86;89.44;99030.49;2171813;81;21350;-86
2022/11/01 09:55:51;;;;;;;37.38;29.55;;;;;;;11.74;89.79;99029.03;2170214;81;20954;-85
2022/11/01 09:58:51;;;;;;;41.77;29.65;;;;;;;11.67;90.13;99032.02;2172660;81;20965;-85
2022/11/01 10:01:52;;;;;;;42.23;30.00;;;;;;;11.73;89.91;99040.35;2170413;81;20957;-85
2022/11/01 10:04:52;;;;;;;45.55;29.85;;;;;;;11.89;90.10;99027.91;2171944;81;21025;-85
2022/11/01 10:07:52;;;;;;;32.33;21.77;;;;;;;12.19;89.99;99013.38;2170606;81;20965;-84
2022/11/01 10:10:53;;;;;;;29.90;21.05;;;;;;;13.87;100.00;99009.45;2172705;81;20925;-85
2022/11/01 10:13:53;;;;;;;36.75;25.68;;;;;;;16.39;94.61;99000.26;2172109;81;21393;-86
2022/11/01 10:16:54;;;;;;;37.53;27.13;;;;;;;16.76;85.12;99007.88;2170413;81;20933;-84
2022/11/01 10:19:54;;;;;;;39.98;27.82;;;;;;;18.01;81.55;99008.95;2170510;81;20906;-84
2022/11/01 10:22:54;;;;;;;33.30;21.95;;;;;;;17.59;75.37;99000.73;2171299;81;20969;-87
2022/11/01 10:25:55;;;;;;;33.60;23.73;;;;;;;17.03;79.44;98994.37;2171694;81;21380;-86
2022/11/01 10:28:55;;;;;;;40.03;28.02;;;;;;;18.44;79.19;98988.88;2171630;81;21332;-85
2022/11/01 10:31:56;;;;;;;30.82;23.35;;;;;;;19.04;73.23;98985.14;2172372;81;20964;-87
2022/11/01 10:34:56;;;;;;;34.15;24.55;;;;;;;18.64;74.67;98981.95;2171925;82;20908;-84
2022/11/01 10:37:57;;;;;;;26.70;21.15;;;;;;;19.08;69.95;98979.80;2171613;81;21011;-85
2022/11/01 10:40:57;;;;;;;31.55;24.40;;;;;;;18.58;71.86;98983.80;2173369;81;21035;-84
2022/11/01 10:43:57;;;;;;;30.62;24.37;;;;;;;19.31;69.00;98978.45;2171326;81;21388;-84
2022/11/01 10:46:58;;;;;;;35.28;23.10;;;;;;;18.42;67.20;98979.23;2171897;81;20981;-84
2022/11/01 10:49:58;;;;;;;35.20;23.70;;;;;;;17.49;67.71;98978.00;2172415;81;20941;-85
2022/11/01 10:52:59;;;;;;;33.48;24.87;;;;;;;16.85;68.82;98969.55;2171997;81;20921;-85
2022/11/01 10:56:00;;;;;;;37.98;25.45;;;;;;;16.30;69.91;98971.36;2171478;81;20965;-85
2022/11/01 10:58:59;;;;;;;38.28;27.30;;;;;;;16.02;71.08;98972.48;2170313;81;21380;-85
2022/11/01 11:02:00;;;;;;;36.58;27.65;;;;;;;15.73;72.08;98966.13;2170491;81;20969;-85
2022/11/01 11:05:00;;;;;;;34.38;26.75;;;;;;;15.51;73.02;98965.33;2170433;81;20981;-85
2022/11/01 11:08:03;;;;;;;35.35;26.48;;;;;;;15.49;73.58;98967.09;2170367;81;20905;-85
2022/11/01 11:11:01;;;;;;;37.15;27.15;;;;;;;15.48;73.75;98966.22;2171562;81;21357;-85
2022/11/01 11:14:03;;;;;;;38.08;27.40;;;;;;;15.51;73.94;98953.48;2170772;81;21000;-85
2022/11/01 11:17:03;;;;;;;28.00;19.02;;;;;;;15.57;75.23;98946.87;2171729;81;20937;-86
2022/11/01 11:20:03;;;;;;;29.50;20.97;;;;;;;17.47;80.46;98955.59;2170726;81;21305;-86
2022/11/01 11:23:04;;;;;;;28.70;19.82;;;;;;;19.45;74.78;98941.09;2172282;81;20921;-86
2022/11/01 11:26:04;;;;;;;25.17;19.20;;;;;;;20.59;70.02;98935.23;2169900;81;21008;-87
2022/11/01 11:29:05;;;;;;;30.62;23.25;;;;;;;21.41;66.37;98934.70;2172547;82;20961;-85
2022/11/01 11:32:05;;;;;;;37.53;25.02;;;;;;;21.81;63.15;98941.45;2170558;81;20926;-85
2022/11/01 11:35:07;;;;;;;30.95;24.35;;;;;;;20.71;60.44;98945.97;2171348;81;21320;-85
2022/11/01 11:38:06;;;;;;;40.73;27.45;;;;;;;19.50;61.07;98958.61;2172202;81;20898;-86
2022/11/01 11:41:06;;;;;;;38.17;26.02;;;;;;;18.49;63.23;98957.53;2170632;81;20969;-84
2022/11/01 11:44:10;;;;;;;37.58;24.60;;;;;;;17.88;64.70;98948.84;2172337;81;21019;-85
2022/11/01 11:47:10;;;;;;;39.30;25.55;;;;;;;17.44;65.83;98943.76;2170731;81;20981;-85
2022/11/01 11:50:10;;;;;;;37.83;24.35;;;;;;;17.11;66.95;98949.01;2171173;81;21305;-83
2022/11/01 11:53:11;;;;;;;30.17;23.57;;;;;;;16.81;68.20;98941.47;2171055;81;20961;-84
2022/11/01 11:56:11;;;;;;;30.10;20.60;;;;;;;16.61;69.00;98943.42;2170213;81;20922;-83
2022/11/01 11:59:12;;;;;;;27.20;20.88;;;;;;;16.39;69.83;98931.77;2171040;81;20945;-83
2022/11/01 12:02:12;;;;;;;30.15;20.97;;;;;;;16.29;70.85;98938.45;2171086;81;21028;-84
2022/11/01 12:05:12;;;;;;;26.50;20.08;;;;;;;16.29;71.37;98931.42;2172119;81;21004;-84
2022/11/01 12:08:13;;;;;;;30.85;21.73;;;;;;;16.29;71.53;98932.74;2173079;81;20949;-84
2022/11/01 12:11:14;;;;;;;30.97;20.43;;;;;;;16.30;71.66;98928.34;2172811;82;20977;-83
2022/11/01 12:14:15;;;;;;;33.58;16.25;;;;;;;16.52;71.67;98923.31;2173113;81;20925;-85
2022/11/01 12:17:15;;;;;;;31.00;22.90;;;;;;;16.59;71.18;98921.05;2173480;81;20957;-85
2022/11/01 12:20:15;;;;;;;25.45;21.48;;;;;;;16.53;70.64;98927.70;2173754;81;20976;-84
2022/11/01 12:23:16;;;;;;;34.90;21.25;;;;;;;16.37;71.28;98920.81;2173106;81;21405;-86
2022/11/01 12:26:21;;;;;;;24.72;15.60;;;;;;;16.33;71.99;98916.46;2173243;81;20981;-89
2022/11/01 12:29:20;;;;;;;32.55;15.72;;;;;;;17.82;79.32;98922.09;2172874;81;21364;-86
2022/11/01 12:32:21;;;;;;;23.52;14.13;;;;;;;19.59;73.94;98921.37;2172820;81;20956;-85
2022/11/01 12:35:23;;;;;;;20.65;11.33;;;;;;;20.67;65.91;98913.81;2173319;81;20953;-86
2022/11/01 12:38:25;;;;;;;21.68;10.85;;;;;;;20.82;66.02;98917.39;2167381;82;20921;-87
2022/11/01 12:41:28;;;;;;;26.23;11.78;;;;;;;21.52;64.28;98918.44;2161213;82;21055;-86
2022/11/01 12:44:28;;;;;;;25.30;9.83;;;;;;;22.03;61.97;98915.95;2170355;82;21297;-86
2022/11/01 12:47:28;;;;;;;27.02;10.85;;;;;;;22.12;59.94;98911.66;2172945;81;21265;-86
2022/11/01 12:50:29;;;;;;;21.20;9.88;;;;;;;22.30;57.82;98918.14;2172980;81;20921;-86
2022/11/01 12:53:29;;;;;;;12.75;9.63;;;;;;;22.40;57.17;98915.56;2173159;81;20929;-83
2022/11/01 12:56:30;;;;;;;12.98;9.65;;;;;;;21.87;52.82;98922.20;2173385;81;20930;-83
2022/11/01 12:59:30;;;;;;;13.38;10.13;;;;;;;20.07;56.35;98924.22;2173092;81;21313;-83
2022/11/01 13:02:31;;;;;;;21.25;10.80;;;;;;;18.96;58.25;98923.59;2173256;81;20988;-84
2022/11/01 13:05:31;;;;;;;14.85;10.80;;;;;;;17.99;60.27;98931.51;2178196;81;21016;-83
2022/11/01 13:08:31;;;;;;;21.17;10.53;;;;;;;17.37;62.08;98930.67;2172337;82;21361;-83
2022/11/01 13:11:32;;;;;;;24.70;11.78;;;;;;;16.91;63.84;98942.23;2170441;81;21317;-83
2022/11/01 13:14:32;;;;;;;13.08;9.50;;;;;;;16.57;65.07;98943.91;2170495;81;20958;-83
2022/11/01 13:17:33;;;;;;;14.38;10.00;;;;;;;16.41;66.14;98942.28;2171178;81;20962;-84
2022/11/01 13:20:33;;;;;;;12.60;9.98;;;;;;;16.25;67.12;98939.80;2171015;81;20980;-83
2022/11/01 13:23:33;;;;;;;13.90;10.48;;;;;;;16.05;67.81;98942.19;2170653;81;21340;-84
2022/11/01 13:26:34;;;;;;;24.15;10.93;;;;;;;15.95;68.39;98935.25;2171335;81;20964;-83
2022/11/01 13:29:34;;;;;;;13.18;10.70;;;;;;;15.85;69.06;98940.59;2170927;81;20984;-83
2022/11/01 13:32:35;;;;;;;13.20;9.80;;;;;;;15.77;69.40;98939.77;2171316;81;20929;-84
2022/11/01 13:35:36;;;;;;;20.77;10.05;;;;;;;17.08;72.21;98938.94;2171031;80;20958;-83
2022/11/01 13:38:35;;;;;;;18.55;10.65;;;;;;;16.95;68.31;98938.67;2170921;81;20902;-83
2022/11/01 13:41:36;;;;;;;15.63;11.48;;;;;;;16.45;68.37;98935.65;2170523;81;20968;-84
2022/11/01 13:44:36;;;;;;;14.30;11.38;;;;;;;16.16;69.25;98929.80;2170718;81;21008;-83
2022/11/01 13:47:36;;;;;;;13.05;10.68;;;;;;;15.92;69.77;98930.88;2170701;82;20988;-83
2022/11/01 13:50:37;;;;;;;12.80;11.00;;;;;;;15.75;70.63;98942.86;2171454;81;20956;-84
2022/11/01 13:53:37;;;;;;;18.82;11.10;;;;;;;15.56;71.10;98942.05;2170512;81;21399;-85
2022/11/01 13:56:38;;;;;;;15.83;8.83;;;;;;;15.44;71.53;98942.13;2171323;81;20957;-86
2022/11/01 13:59:43;;;;;;;13.55;8.58;;;;;;;16.14;80.45;98933.76;2171027;81;20985;-87